Sunday, September 21, 2014, 6:04 AM EDT

KOXB, Ocean City Municipal Airport

Location: Berlin, MD, United States Lat: 38.317
Local Time: 6:04 AM EDT (10:04 GMT) Lon: -75.117
Time Zone: US/Eastern Elev: 13 ft

Show me the last for .
Show Decoded

2014-09-21 05:53 METAR KOXB 210953Z AUTO 01004KT 4SM HZ OVC005 A2988 RMK AO2 SLP119 TSNO $ =
2014-09-21 05:36 METAR KOXB 210936Z AUTO 02003KT 4SM HZ OVC005 A2989 RMK AO2 TSNO $ =
2014-09-21 05:10 METAR KOXB 210910Z AUTO 36004KT 3SM BR OVC004 A2989 RMK AO2 TSNO $ =
2014-09-21 05:07 METAR KOXB 210907Z AUTO 01004KT 2SM BR OVC002 A2989 RMK AO2 TSNO $ =
2014-09-21 04:50 METAR KOXB 210850Z AUTO 35005KT 3/4SM BR VV002 A2990 RMK AO2 SLP126 56024 TSNO $
                 =
2014-09-21 04:49 METAR KOXB 210849Z AUTO 35005KT 3/4SM BR VV002 A2990 RMK AO2 TSNO $ =
2014-09-21 04:43 METAR KOXB 210843Z AUTO 34004KT 1 3/4SM BR SCT002 BKN007 A2990 RMK AO2 TSNO $ =
2014-09-21 04:38 METAR KOXB 210838Z AUTO 34005KT 3SM BR SCT003 SCT016 A2990 RMK AO2 TSNO $ =
2014-09-21 04:32 METAR KOXB 210832Z AUTO 33005KT 2SM BR FEW016 A2990 RMK AO2 TSNO $ =
2014-09-21 03:53 METAR KOXB 210753Z AUTO 00000KT 3SM BR CLR A2991 RMK AO2 SLP130 TSNO $ =
2014-09-21 03:43 METAR KOXB 210743Z AUTO 00000KT 5SM HZ SCT009 A2992 RMK AO2 TSNO $ =
2014-09-21 03:15 METAR KOXB 210715Z AUTO 00000KT 5SM HZ OVC009 A2994 RMK AO2 TSNO $ =
2014-09-21 02:42 METAR KOXB 210642Z AUTO 33003KT 4SM HZ BKN010 OVC016 A2995 RMK AO2 TSNO $ =
2014-09-21 02:33 METAR KOXB 210633Z AUTO 00000KT 2 1/2SM BR BKN010 OVC017 A2995 RMK AO2 TSNO $ =
2014-09-21 02:03 METAR KOXB 210603Z AUTO 00000KT 4SM HZ BKN017 A2996 RMK AO2 TSNO $ =
2014-09-21 01:53 METAR KOXB 210553Z AUTO 34004KT 5SM HZ SCT017 A2997 RMK AO2 SLP150 58014 TSNO $
                 =
2014-09-21 00:53 METAR KOXB 210453Z AUTO 00000KT 6SM HZ CLR A2999 RMK AO2 SLP157 402330206 TSNO $
                 =
2014-09-21 00:01 METAR KOXB 210401Z AUTO 00000KT 7SM SCT023 A3001 RMK AO2 TSNO $ =
2014-09-20 23:53 METAR KOXB 210353Z AUTO 00000KT 7SM FEW018 BKN023 A3000 RMK AO2 SLP160 TSNO $ =
2014-09-20 22:53 METAR KOXB 210253Z AUTO 11004KT 8SM FEW009 22/20 A3002 RMK AO2 SLP164 T02220200
                 56007 TSNO =
2014-09-20 22:50 METAR KOXB 210250Z AUTO 11003KT 8SM SCT009 22/20 A3002 RMK AO2 TSNO =
2014-09-20 22:18 METAR KOXB 210218Z AUTO 07003KT 9SM OVC009 22/20 A3003 RMK AO2 CIG 007V013
                 T02220200 TSNO =
2014-09-20 21:53 METAR KOXB 210153Z AUTO 06003KT 8SM OVC010 22/20 A3004 RMK AO2 CIG 008V014
                 SLP170 T02220200 TSNO =
2014-09-20 21:49 METAR KOXB 210149Z AUTO 05004KT 8SM OVC009 22/20 A3004 RMK AO2 CIG 008V014 TSNO
                 =
2014-09-20 21:07 METAR KOXB 210107Z AUTO 06004KT 9SM OVC014 22/20 A3007 RMK AO2 T02220200 TSNO =
2014-09-20 20:03 METAR KOXB 210003Z AUTO 10006KT 9SM BKN008 BKN026 22/19 A3008 RMK AO2 T02170194
                 TSNO $ =
2014-09-20 19:53 METAR KOXB 202353Z AUTO 10005KT 8SM SCT008 BKN026 22/19 A3008 RMK AO2 SLP186
                 T02170194 10233 20217 56007 TSNO $ =
2014-09-20 19:48 METAR KOXB 202348Z AUTO 11005KT 8SM SCT008 BKN025 22/19 A3008 RMK AO2 TSNO $ =
2014-09-20 19:41 METAR KOXB 202341Z AUTO 11007KT 8SM SCT008 SCT025 22/19 A3008 RMK AO2 T02170194
                 TSNO $ =
2014-09-20 19:09 METAR KOXB 202309Z AUTO 11011KT 9SM BKN009 BKN090 22/19 A3008 RMK AO2 T02170189
                 TSNO $ =
2014-09-20 18:53 METAR KOXB 202253Z AUTO 11010KT 9SM SCT009 BKN090 22/19 A3008 RMK AO2 SLP187
                 T02170189 TSNO $ =
2014-09-20 18:33 METAR KOXB 202233Z AUTO 11009KT 10SM SCT011 BKN090 22/19 A3009 RMK AO2 T02170189
                 TSNO $ =
2014-09-20 18:25 METAR KOXB 202225Z AUTO 11012G16KT 10SM BKN010 BKN090 22/19 A3009 RMK AO2
                 T02170189 TSNO $ =
2014-09-20 18:14 METAR KOXB 202214Z AUTO 11010KT 10SM SCT010 BKN090 22/19 A3010 RMK AO2 T02170189
                 TSNO $ =
2014-09-20 18:00 METAR KOXB 202200Z AUTO 11011G16KT 070V140 10SM BKN010 BKN110 22/19 A3010 RMK
                 AO2 T02170189 TSNO $ =
2014-09-20 17:53 METAR KOXB 202153Z AUTO 11009KT 10SM BKN009 BKN110 22/19 A3010 RMK AO2 SLP193
                 T02170189 TSNO $ =
2014-09-20 17:44 METAR KOXB 202144Z AUTO 11009KT 10SM BKN009 BKN110 22/19 A3010 RMK AO2 T02220189
                 TSNO $ =
2014-09-20 16:53 METAR KOXB 202053Z AUTO 11009KT 10SM BKN120 22/18 A3012 RMK AO2 SLP198 T02220178
                 58022 TSNO $ =
2014-09-20 15:53 METAR KOXB 201953Z AUTO 12010KT 10SM SCT043 OVC085 23/16 A3014 RMK AO2 SLP205
                 T02280161 TSNO $ =
2014-09-20 13:53 METAR KOXB 201753Z AUTO 13006KT 10SM OVC050 23/17 A3018 RMK AO2 SLP220 T02330172
                 10233 20217 TSNO $ =
2014-09-20 12:53 METAR KOXB 201653Z AUTO 13004KT 10SM 23/18 A3021 RMK AO2 SLP229 T02330183 TSNO $
                 =
2014-09-20 11:53 METAR KOXB 201553Z AUTO 11007KT 10SM OVC055 23/18 A3024 RMK AO2 SLP238 T02330183
                 TSNO =
2014-09-20 10:53 METAR KOXB 201453Z AUTO 12012G17KT 10SM OVC055 23/17 A3024 RMK AO2 SLP241
                 T02280172 51002 TSNO =
2014-09-20 08:53 METAR KOXB 201253Z AUTO 12012KT 10SM OVC065 22/17 A3025 RMK AO2 SLP242 T02220172
                 TSNO =
2014-09-20 07:53 METAR KOXB 201153Z AUTO 12008KT 10SM OVC075 22/17 A3024 RMK AO2 SLP239 T02170172
                 10217 20206 58001 TSNO =
2014-09-20 06:53 METAR KOXB 201053Z AUTO 12010G17KT 10SM OVC075 22/17 A3024 RMK AO2 SLP240
                 T02170167 TSNO =

Support USWX by starting your Amazon purchase here.